createdAt,value
2023-05-08T00:00:28.713Z,13.10
2023-05-08T00:02:56.200Z,13.10
2023-05-08T00:05:23.180Z,13.00
2023-05-08T00:07:52.406Z,13.00
2023-05-08T00:10:19.039Z,12.90
2023-05-08T00:12:45.809Z,12.80
2023-05-08T00:15:12.568Z,12.80
2023-05-08T00:17:39.305Z,12.70
2023-05-08T00:20:08.916Z,12.70
2023-05-08T00:22:35.696Z,12.60
2023-05-08T00:25:03.386Z,12.60
2023-05-08T00:27:30.119Z,12.60
2023-05-08T00:29:57.480Z,12.50
2023-05-08T00:32:24.796Z,12.50
2023-05-08T00:34:51.459Z,12.40
2023-05-08T00:37:18.146Z,12.40
2023-05-08T00:39:44.829Z,12.40
2023-05-08T00:42:11.836Z,12.40
2023-05-08T00:44:40.241Z,12.40
2023-05-08T00:47:07.931Z,12.30
2023-05-08T00:49:35.933Z,12.30
2023-05-08T00:52:03.172Z,12.20
2023-05-08T00:54:29.858Z,12.20
2023-05-08T00:56:56.761Z,12.20
2023-05-08T00:59:23.614Z,12.20
2023-05-08T01:01:50.318Z,12.20
2023-05-08T01:04:17.217Z,12.20
2023-05-08T01:06:44.059Z,12.10
2023-05-08T01:09:11.380Z,12.10
2023-05-08T01:11:48.887Z,12.10
2023-05-08T01:14:25.348Z,12.10
2023-05-08T01:16:57.997Z,12.10
2023-05-08T01:19:32.878Z,12.10
2023-05-08T01:22:22.956Z,12.10
2023-05-08T01:24:55.723Z,12.10
2023-05-08T01:27:22.364Z,12.00
2023-05-08T01:29:52.141Z,12.00
2023-05-08T01:32:18.904Z,12.00
2023-05-08T01:35:00.694Z,11.90
2023-05-08T01:37:32.891Z,11.90
2023-05-08T01:40:18.558Z,11.90
2023-05-08T01:42:49.534Z,11.90
2023-05-08T01:45:32.390Z,11.90
2023-05-08T01:48:06.845Z,11.90
2023-05-08T01:50:34.848Z,11.80
2023-05-08T01:53:13.454Z,11.80
2023-05-08T01:55:40.158Z,11.80
2023-05-08T01:58:07.969Z,11.80
2023-05-08T02:00:34.610Z,11.70
2023-05-08T02:03:01.552Z,11.70
2023-05-08T02:05:28.365Z,11.60
2023-05-08T02:07:55.016Z,11.60
2023-05-08T02:10:22.230Z,11.60
2023-05-08T02:12:49.004Z,11.50
2023-05-08T02:15:16.220Z,11.50
2023-05-08T02:17:43.716Z,11.50
2023-05-08T02:20:14.872Z,11.40
2023-05-08T02:22:42.530Z,11.40
2023-05-08T02:25:09.667Z,11.40
2023-05-08T02:27:36.321Z,11.40
2023-05-08T02:30:03.147Z,11.30
2023-05-08T02:32:29.861Z,11.30
2023-05-08T02:35:03.108Z,11.20
2023-05-08T02:37:30.336Z,11.20
2023-05-08T02:39:56.969Z,11.20
2023-05-08T02:42:23.649Z,11.10
2023-05-08T02:44:50.370Z,11.10
2023-05-08T02:47:17.099Z,11.00
2023-05-08T02:49:45.748Z,11.00
2023-05-08T02:52:18.483Z,10.90
2023-05-08T02:55:04.948Z,10.90
2023-05-08T02:57:40.003Z,10.90
2023-05-08T03:00:10.065Z,10.80
2023-05-08T03:03:06.408Z,10.90
2023-05-08T03:05:33.830Z,10.90
2023-05-08T03:08:00.936Z,10.90
2023-05-08T03:10:28.462Z,10.80
2023-05-08T03:12:55.094Z,10.80
2023-05-08T03:15:24.131Z,10.80
2023-05-08T03:17:52.604Z,10.80
2023-05-08T03:20:19.351Z,10.80
2023-05-08T03:22:46.016Z,10.80
2023-05-08T03:25:14.050Z,10.80
2023-05-08T03:27:40.665Z,10.70
2023-05-08T03:30:07.580Z,10.60
2023-05-08T03:32:34.367Z,10.60
2023-05-08T03:35:01.137Z,10.60
2023-05-08T03:37:28.454Z,10.60
2023-05-08T03:39:58.147Z,10.60
2023-05-08T03:42:25.188Z,10.60
2023-05-08T03:44:51.970Z,10.60
2023-05-08T03:47:18.768Z,10.50
2023-05-08T03:49:45.644Z,10.60
2023-05-08T03:52:12.929Z,10.60
2023-05-08T03:54:39.666Z,10.60
2023-05-08T03:57:06.389Z,10.60
2023-05-08T03:59:33.030Z,10.50
2023-05-08T04:02:09.241Z,10.50
2023-05-08T04:04:42.292Z,10.50
2023-05-08T04:07:11.961Z,10.50
2023-05-08T04:09:40.614Z,10.50
2023-05-08T04:12:18.115Z,10.40
2023-05-08T04:15:11.414Z,10.50
2023-05-08T04:17:42.786Z,10.60
2023-05-08T04:20:10.498Z,10.50
2023-05-08T04:22:37.153Z,10.60
2023-05-08T04:25:04.078Z,10.50
2023-05-08T04:27:30.849Z,10.50
2023-05-08T04:29:57.645Z,10.50
2023-05-08T04:32:24.324Z,10.50
2023-05-08T04:34:51.108Z,10.60
2023-05-08T04:37:27.598Z,10.60
2023-05-08T04:39:54.373Z,10.60
2023-05-08T04:42:21.341Z,10.60
2023-05-08T04:44:48.171Z,10.60
2023-05-08T04:47:14.836Z,10.60
2023-05-08T04:49:41.618Z,10.70
2023-05-08T04:52:08.550Z,10.70
2023-05-08T04:54:35.875Z,10.70
2023-05-08T04:57:02.745Z,10.80
2023-05-08T04:59:29.742Z,10.80
2023-05-08T05:01:56.677Z,10.80
2023-05-08T05:04:23.378Z,10.90
2023-05-08T05:06:50.051Z,10.90
2023-05-08T05:09:16.749Z,11.00
2023-05-08T05:11:43.396Z,11.00
2023-05-08T05:14:10.157Z,11.00
2023-05-08T05:16:36.969Z,11.10
2023-05-08T05:19:04.809Z,11.20
2023-05-08T05:21:32.024Z,11.20
2023-05-08T05:23:58.735Z,11.30
2023-05-08T05:26:25.367Z,11.40
2023-05-08T05:28:52.046Z,11.50
2023-05-08T05:31:18.826Z,11.60
2023-05-08T05:33:46.611Z,11.60
2023-05-08T05:36:13.272Z,11.70
2023-05-08T05:38:40.172Z,11.80
2023-05-08T05:41:06.909Z,11.90
2023-05-08T05:43:33.552Z,11.90
2023-05-08T05:46:06.791Z,12.00
2023-05-08T05:48:34.147Z,12.10
2023-05-08T05:51:01.053Z,12.20
2023-05-08T05:53:27.749Z,12.30
2023-05-08T05:55:54.466Z,12.30
2023-05-08T05:58:21.190Z,12.50
2023-05-08T06:00:48.397Z,12.60
2023-05-08T06:03:15.214Z,12.60
2023-05-08T06:05:41.901Z,12.60
2023-05-08T06:08:08.771Z,12.70
2023-05-08T06:10:35.509Z,12.80
2023-05-08T06:13:02.348Z,12.90
2023-05-08T06:15:29.036Z,13.00
2023-05-08T06:17:55.788Z,13.00
2023-05-08T06:20:24.414Z,13.10
2023-05-08T06:22:52.494Z,13.20
2023-05-08T06:25:19.968Z,13.30
2023-05-08T06:27:46.637Z,13.40
2023-05-08T06:30:13.355Z,13.50
2023-05-08T06:32:40.168Z,13.50
2023-05-08T06:35:07.281Z,13.60
2023-05-08T06:37:33.896Z,13.70
2023-05-08T06:40:10.819Z,13.80
2023-05-08T06:42:38.551Z,13.80
2023-05-08T06:45:05.488Z,13.90
2023-05-08T06:47:32.099Z,13.90
2023-05-08T06:49:58.960Z,13.90
2023-05-08T06:52:25.855Z,14.00
2023-05-08T06:54:52.582Z,14.10
2023-05-08T06:57:19.365Z,14.20
2023-05-08T06:59:46.082Z,14.30
2023-05-08T07:02:12.892Z,14.40
2023-05-08T07:04:39.691Z,14.50
2023-05-08T07:07:06.952Z,14.50
2023-05-08T07:09:33.744Z,14.60
2023-05-08T07:12:00.403Z,14.70
2023-05-08T07:14:27.620Z,14.80
2023-05-08T07:16:54.416Z,14.90
2023-05-08T07:19:22.623Z,14.90
2023-05-08T07:21:49.880Z,14.80
2023-05-08T07:24:16.761Z,14.80
2023-05-08T07:26:43.622Z,14.70
2023-05-08T07:29:10.752Z,14.80
2023-05-08T07:31:39.212Z,14.80
2023-05-08T07:34:07.304Z,14.80
2023-05-08T07:36:34.060Z,14.90
2023-05-08T07:39:00.675Z,14.90
2023-05-08T07:41:27.585Z,14.90
2023-05-08T07:43:54.363Z,14.90
2023-05-08T07:46:21.870Z,15.00
2023-05-08T07:48:49.013Z,15.00
2023-05-08T07:51:16.472Z,15.00
2023-05-08T07:53:43.512Z,15.00
2023-05-08T07:56:10.230Z,15.10
2023-05-08T07:58:37.077Z,15.10
2023-05-08T08:01:03.953Z,15.20
2023-05-08T08:03:30.864Z,15.20
2023-05-08T08:05:57.656Z,15.20
2023-05-08T08:08:24.748Z,15.30
2023-05-08T08:10:51.570Z,15.40
2023-05-08T08:13:18.411Z,15.30
2023-05-08T08:15:45.121Z,15.20
2023-05-08T08:18:11.862Z,15.10
2023-05-08T08:20:38.576Z,15.10
2023-05-08T08:23:06.628Z,15.10
2023-05-08T08:25:33.535Z,15.20
2023-05-08T08:28:00.596Z,15.20
2023-05-08T08:30:27.426Z,15.20
2023-05-08T08:32:55.177Z,15.20
2023-05-08T08:35:26.585Z,15.20
2023-05-08T08:37:53.472Z,15.30
2023-05-08T08:40:20.676Z,15.40
2023-05-08T08:42:47.474Z,15.40
2023-05-08T08:45:14.886Z,15.40
2023-05-08T08:47:42.585Z,15.50
2023-05-08T08:50:11.278Z,15.50
2023-05-08T08:52:45.834Z,15.50
2023-05-08T08:55:15.121Z,15.50
2023-05-08T08:57:45.378Z,15.70
2023-05-08T09:00:12.272Z,15.70
2023-05-08T09:02:38.965Z,15.70
2023-05-08T09:05:06.137Z,15.90
2023-05-08T09:07:32.914Z,16.00
2023-05-08T09:09:59.757Z,16.20
2023-05-08T09:12:26.834Z,16.50
2023-05-08T09:14:53.464Z,16.70
2023-05-08T09:17:20.126Z,16.90
2023-05-08T09:19:48.699Z,17.00
2023-05-08T09:22:15.647Z,17.00
2023-05-08T09:24:54.043Z,17.00
2023-05-08T09:27:27.395Z,16.80
2023-05-08T09:30:04.970Z,16.80
2023-05-08T09:32:32.364Z,16.80
2023-05-08T09:34:59.328Z,16.70
2023-05-08T09:37:26.370Z,16.70
2023-05-08T09:39:53.370Z,16.70
2023-05-08T09:42:20.454Z,16.80
2023-05-08T09:44:51.210Z,16.90
2023-05-08T09:47:22.008Z,17.00
2023-05-08T09:50:05.594Z,17.10
2023-05-08T09:52:32.801Z,17.10
2023-05-08T09:55:07.067Z,17.10
2023-05-08T09:57:36.292Z,17.10
2023-05-08T10:00:03.535Z,17.00
2023-05-08T10:02:30.304Z,16.90
2023-05-08T10:04:57.930Z,16.90
2023-05-08T10:07:31.114Z,16.90
2023-05-08T10:09:58.999Z,16.90
2023-05-08T10:12:26.139Z,16.80
2023-05-08T10:14:52.989Z,16.80
2023-05-08T10:17:21.734Z,16.90
2023-05-08T10:19:48.660Z,17.00
2023-05-08T10:22:15.439Z,17.10
2023-05-08T10:24:42.073Z,17.20
2023-05-08T10:27:18.154Z,17.20
2023-05-08T10:29:44.781Z,17.10
2023-05-08T10:32:11.744Z,17.10
2023-05-08T10:34:40.105Z,17.10
2023-05-08T10:37:10.077Z,17.00
2023-05-08T10:39:36.764Z,17.00
2023-05-08T10:42:03.435Z,17.10
2023-05-08T10:44:30.670Z,17.20
2023-05-08T10:47:23.774Z,17.30
2023-05-08T10:50:02.969Z,17.50
2023-05-08T10:52:52.801Z,17.80
2023-05-08T10:55:20.394Z,18.20
2023-05-08T10:58:07.038Z,18.20
2023-05-08T11:00:53.762Z,18.30
2023-05-08T11:03:30.735Z,18.50
2023-05-08T11:05:59.020Z,18.60
2023-05-08T11:08:27.701Z,18.60
2023-05-08T11:11:14.755Z,18.70
2023-05-08T11:13:42.715Z,18.70
2023-05-08T11:16:12.456Z,18.60
2023-05-08T11:18:49.091Z,18.60
2023-05-08T11:21:20.576Z,18.60
2023-05-08T11:23:47.320Z,18.50
2023-05-08T11:26:14.145Z,18.50
2023-05-08T11:28:41.894Z,18.40
2023-05-08T11:31:08.756Z,18.30
2023-05-08T11:33:37.875Z,18.20
2023-05-08T11:36:14.768Z,18.20
2023-05-08T11:38:41.796Z,18.10
2023-05-08T11:41:09.450Z,18.00
2023-05-08T11:43:45.359Z,17.90
2023-05-08T11:46:16.170Z,18.00
2023-05-08T11:48:42.996Z,17.90
2023-05-08T11:51:09.796Z,17.80
2023-05-08T11:53:36.966Z,17.70
2023-05-08T11:56:03.982Z,17.60
2023-05-08T11:58:31.271Z,17.40
2023-05-08T12:00:58.059Z,17.30
2023-05-08T12:03:27.966Z,17.10
2023-05-08T12:05:57.941Z,17.00
2023-05-08T12:08:24.838Z,17.00
2023-05-08T12:10:55.362Z,17.00
2023-05-08T12:13:22.204Z,17.10
2023-05-08T12:15:49.636Z,17.10
2023-05-08T12:18:17.130Z,17.00
2023-05-08T12:20:43.922Z,17.00
2023-05-08T12:23:10.525Z,17.00
2023-05-08T12:25:40.553Z,17.10
2023-05-08T12:28:07.410Z,17.20
2023-05-08T12:30:34.001Z,17.20
2023-05-08T12:33:01.255Z,17.30
2023-05-08T12:35:28.859Z,17.50
2023-05-08T12:37:55.515Z,17.50
2023-05-08T12:40:24.354Z,17.60
2023-05-08T12:42:51.217Z,17.50
2023-05-08T12:45:18.045Z,17.40
2023-05-08T12:47:51.371Z,17.20
2023-05-08T12:50:21.151Z,17.00
2023-05-08T12:52:49.306Z,16.80
2023-05-08T12:55:24.260Z,16.70
2023-05-08T12:57:51.914Z,16.80
2023-05-08T13:00:18.611Z,16.80
2023-05-08T13:02:52.999Z,17.00
2023-05-08T13:05:20.574Z,17.30
2023-05-08T13:07:47.224Z,17.50
2023-05-08T13:10:14.349Z,17.70
2023-05-08T13:12:41.281Z,17.70
2023-05-08T13:15:08.455Z,17.60
2023-05-08T13:17:35.716Z,17.60
2023-05-08T13:20:05.911Z,17.60
2023-05-08T13:22:33.001Z,17.60
2023-05-08T13:25:00.039Z,17.70
2023-05-08T13:27:26.716Z,17.90
2023-05-08T13:29:54.084Z,18.40
2023-05-08T13:32:20.933Z,18.70
2023-05-08T13:34:51.110Z,18.70
2023-05-08T13:37:20.163Z,18.40
2023-05-08T13:39:50.440Z,18.30
2023-05-08T13:42:17.190Z,18.40
2023-05-08T13:44:44.274Z,18.40
2023-05-08T13:47:11.027Z,18.60
2023-05-08T13:49:37.828Z,18.90
2023-05-08T13:52:04.662Z,19.20
2023-05-08T13:54:31.486Z,19.90
2023-05-08T13:56:58.138Z,20.00
2023-05-08T13:59:25.172Z,19.90
2023-05-08T14:01:52.180Z,19.90
2023-05-08T14:04:22.230Z,19.30
2023-05-08T14:06:50.145Z,19.00
2023-05-08T14:09:17.643Z,18.70
2023-05-08T14:11:46.703Z,18.60
2023-05-08T14:14:13.468Z,18.40
2023-05-08T14:16:40.243Z,18.40
2023-05-08T14:19:07.081Z,18.40
2023-05-08T14:21:34.807Z,18.70
2023-05-08T14:24:01.693Z,19.10
2023-05-08T14:26:28.481Z,19.30
2023-05-08T14:28:55.223Z,19.30
2023-05-08T14:31:22.039Z,19.30
2023-05-08T14:33:49.013Z,19.10
2023-05-08T14:36:16.133Z,18.70
2023-05-08T14:38:43.169Z,18.50
2023-05-08T14:41:10.341Z,18.40
2023-05-08T14:43:37.437Z,18.50
2023-05-08T14:46:04.830Z,18.50
2023-05-08T14:48:31.994Z,18.60
2023-05-08T14:50:59.162Z,18.40
2023-05-08T14:53:26.450Z,18.30
2023-05-08T14:55:54.107Z,18.30
2023-05-08T14:58:22.883Z,18.30
2023-05-08T15:00:50.253Z,18.30
2023-05-08T15:03:17.275Z,18.40
2023-05-08T15:05:44.222Z,18.30
2023-05-08T15:08:11.221Z,18.20
2023-05-08T15:10:37.997Z,18.00
2023-05-08T15:13:04.885Z,17.90
2023-05-08T15:15:31.920Z,17.90
2023-05-08T15:17:58.660Z,17.90
2023-05-08T15:20:25.782Z,17.80
2023-05-08T15:22:54.236Z,17.70
2023-05-08T15:25:21.194Z,17.70
2023-05-08T15:27:53.016Z,17.60
2023-05-08T15:30:20.269Z,17.50
2023-05-08T15:32:47.693Z,17.30
2023-05-08T15:35:14.768Z,17.20
2023-05-08T15:37:42.148Z,17.10
2023-05-08T15:40:09.072Z,16.90
2023-05-08T15:42:36.462Z,16.90
2023-05-08T15:45:03.507Z,16.80
2023-05-08T15:47:31.516Z,16.60
2023-05-08T15:49:58.592Z,16.50
2023-05-08T15:52:27.820Z,16.50
2023-05-08T15:54:57.298Z,16.70
2023-05-08T15:57:27.168Z,16.70
2023-05-08T15:59:54.073Z,16.60
2023-05-08T16:02:21.028Z,16.50
2023-05-08T16:04:47.960Z,16.40
2023-05-08T16:07:14.821Z,16.30
2023-05-08T16:09:42.308Z,16.20
2023-05-08T16:12:09.157Z,16.20
2023-05-08T16:14:38.945Z,16.10
2023-05-08T16:17:07.994Z,16.10
2023-05-08T16:19:38.479Z,16.00
2023-05-08T16:22:05.495Z,16.00
2023-05-08T16:24:33.785Z,15.80
2023-05-08T16:27:01.158Z,15.80
2023-05-08T16:29:28.274Z,15.70
2023-05-08T16:31:55.180Z,15.60
2023-05-08T16:34:22.721Z,15.70
2023-05-08T16:36:49.718Z,15.60
2023-05-08T16:39:16.814Z,15.60
2023-05-08T16:41:43.556Z,15.50
2023-05-08T16:44:10.414Z,15.50
2023-05-08T16:46:37.904Z,15.40
2023-05-08T16:49:04.673Z,15.40
2023-05-08T16:51:32.417Z,15.30
2023-05-08T16:53:59.052Z,15.40
2023-05-08T16:56:26.012Z,15.40
2023-05-08T16:58:53.051Z,15.40
2023-05-08T17:01:19.983Z,15.40
2023-05-08T17:03:49.360Z,15.40
2023-05-08T17:06:16.218Z,15.30
2023-05-08T17:08:42.999Z,15.20
2023-05-08T17:11:09.760Z,15.20
2023-05-08T17:13:36.618Z,15.20
2023-05-08T17:16:03.559Z,15.20
2023-05-08T17:18:30.325Z,15.20
2023-05-08T17:20:57.045Z,15.20
2023-05-08T17:23:24.015Z,15.20
2023-05-08T17:26:00.207Z,15.20
2023-05-08T17:28:27.037Z,15.20
2023-05-08T17:30:56.287Z,15.20
2023-05-08T17:33:23.281Z,15.10
2023-05-08T17:35:50.549Z,15.10
2023-05-08T17:38:17.389Z,15.10
2023-05-08T17:40:44.001Z,15.10
2023-05-08T17:43:10.864Z,15.10
2023-05-08T17:45:37.756Z,15.20
2023-05-08T17:48:04.962Z,15.20
2023-05-08T17:50:31.723Z,15.20
2023-05-08T17:52:58.431Z,15.20
2023-05-08T17:55:25.315Z,15.20
2023-05-08T17:57:52.780Z,15.30
2023-05-08T18:00:19.610Z,15.30
2023-05-08T18:02:46.475Z,15.30
2023-05-08T18:05:13.473Z,15.10
2023-05-08T18:07:40.237Z,15.10
2023-05-08T18:10:07.310Z,15.10
2023-05-08T18:12:34.146Z,15.10
2023-05-08T18:15:03.504Z,15.10
2023-05-08T18:17:30.212Z,15.00
2023-05-08T18:19:56.846Z,15.00
2023-05-08T18:22:23.547Z,14.90
2023-05-08T18:24:50.286Z,14.90
2023-05-08T18:27:17.070Z,14.90
2023-05-08T18:29:44.403Z,14.80
2023-05-08T18:32:11.873Z,14.80
2023-05-08T18:34:38.624Z,14.90
2023-05-08T18:37:05.292Z,14.90
2023-05-08T18:39:31.995Z,14.90
2023-05-08T18:41:58.726Z,14.90
2023-05-08T18:44:25.393Z,14.90
2023-05-08T18:46:52.059Z,14.80
2023-05-08T18:49:18.736Z,14.80
2023-05-08T18:51:45.906Z,14.80
2023-05-08T18:54:12.941Z,14.80
2023-05-08T18:56:39.626Z,14.80
2023-05-08T18:59:06.303Z,14.80
2023-05-08T19:01:33.008Z,14.70
2023-05-08T19:04:01.906Z,14.70
2023-05-08T19:06:28.719Z,14.70
2023-05-08T19:08:55.366Z,14.70
2023-05-08T19:11:22.113Z,14.70
2023-05-08T19:13:50.073Z,14.70
2023-05-08T19:16:16.734Z,14.70
2023-05-08T19:18:43.367Z,14.70
2023-05-08T19:21:10.104Z,14.70
2023-05-08T19:23:36.700Z,14.70
2023-05-08T19:26:03.307Z,14.70
2023-05-08T19:28:29.999Z,14.70
2023-05-08T19:30:56.800Z,14.70
2023-05-08T19:33:23.610Z,14.70
2023-05-08T19:35:50.243Z,14.60
2023-05-08T19:38:16.897Z,14.60
2023-05-08T19:40:55.809Z,14.60
2023-05-08T19:43:24.608Z,14.70
2023-05-08T19:45:51.309Z,14.60
2023-05-08T19:48:20.096Z,14.70
2023-05-08T19:50:47.419Z,14.70
2023-05-08T19:53:14.272Z,14.70
2023-05-08T19:55:41.058Z,14.60
2023-05-08T19:58:07.726Z,14.70
2023-05-08T20:00:34.475Z,14.60
2023-05-08T20:03:01.282Z,14.60
2023-05-08T20:05:27.955Z,14.60
2023-05-08T20:07:54.575Z,14.60
2023-05-08T20:10:22.193Z,14.60
2023-05-08T20:12:49.026Z,14.60
2023-05-08T20:15:15.805Z,14.60
2023-05-08T20:17:42.641Z,14.60
2023-05-08T20:20:09.691Z,14.60
2023-05-08T20:22:37.747Z,14.60
2023-05-08T20:25:05.151Z,14.60
2023-05-08T20:27:31.820Z,14.60
2023-05-08T20:29:58.547Z,14.60
2023-05-08T20:32:25.230Z,14.60
2023-05-08T20:34:51.873Z,14.60
2023-05-08T20:37:18.569Z,14.50
2023-05-08T20:39:45.402Z,14.50
2023-05-08T20:42:12.277Z,14.50
2023-05-08T20:44:38.880Z,14.50
2023-05-08T20:47:06.685Z,14.50
2023-05-08T20:49:33.457Z,14.50
2023-05-08T20:52:00.187Z,14.50
2023-05-08T20:54:28.688Z,14.50
2023-05-08T20:56:55.333Z,14.50
2023-05-08T20:59:23.224Z,14.50
2023-05-08T21:01:50.097Z,14.50
2023-05-08T21:04:17.045Z,14.50
2023-05-08T21:06:43.955Z,14.50
2023-05-08T21:09:10.694Z,14.50
2023-05-08T21:11:37.476Z,14.50
2023-05-08T21:14:04.159Z,14.60
2023-05-08T21:16:30.842Z,14.60
2023-05-08T21:18:58.471Z,14.60
2023-05-08T21:21:25.500Z,14.60
2023-05-08T21:23:52.056Z,14.50
2023-05-08T21:26:20.076Z,14.50
2023-05-08T21:28:46.751Z,14.50
2023-05-08T21:31:13.476Z,14.50
2023-05-08T21:33:40.145Z,14.50
2023-05-08T21:36:06.880Z,14.50
2023-05-08T21:38:34.184Z,14.50
2023-05-08T21:41:08.122Z,14.50
2023-05-08T21:43:35.988Z,14.50
2023-05-08T21:46:06.285Z,14.50
2023-05-08T21:48:33.431Z,14.50
2023-05-08T21:51:00.065Z,14.40
2023-05-08T21:53:26.856Z,14.50
2023-05-08T21:55:53.475Z,14.40
2023-05-08T21:58:20.118Z,14.50
2023-05-08T22:00:46.760Z,14.40
2023-05-08T22:03:13.437Z,14.40
2023-05-08T22:05:40.125Z,14.40
2023-05-08T22:08:06.813Z,14.40
2023-05-08T22:10:33.497Z,14.40
2023-05-08T22:13:01.524Z,14.40
2023-05-08T22:15:30.712Z,14.50
2023-05-08T22:17:58.008Z,14.40
2023-05-08T22:20:25.210Z,14.40
2023-05-08T22:22:51.905Z,14.40
2023-05-08T22:25:18.535Z,14.40
2023-05-08T22:27:45.501Z,14.40
2023-05-08T22:30:14.689Z,14.50
2023-05-08T22:32:42.736Z,14.50
2023-05-08T22:35:09.647Z,14.50
2023-05-08T22:37:36.893Z,14.50
2023-05-08T22:40:03.982Z,14.50
2023-05-08T22:42:30.736Z,14.50
2023-05-08T22:44:57.439Z,14.40
2023-05-08T22:47:26.107Z,14.40
2023-05-08T22:49:52.816Z,14.40
2023-05-08T22:52:19.499Z,14.50
2023-05-08T22:54:46.236Z,14.40
2023-05-08T22:57:14.196Z,14.50
2023-05-08T22:59:40.900Z,14.50
2023-05-08T23:02:07.514Z,14.50
2023-05-08T23:04:34.213Z,14.50
2023-05-08T23:07:01.583Z,14.50
2023-05-08T23:09:28.319Z,14.40
2023-05-08T23:11:55.215Z,14.40
2023-05-08T23:14:21.822Z,14.40
2023-05-08T23:16:48.490Z,14.40
2023-05-08T23:19:15.380Z,14.40
2023-05-08T23:21:42.153Z,14.40
2023-05-08T23:24:08.765Z,14.40
2023-05-08T23:26:35.428Z,14.50
2023-05-08T23:29:02.093Z,14.50
2023-05-08T23:31:28.788Z,14.50
2023-05-08T23:33:55.898Z,14.50
2023-05-08T23:36:22.738Z,14.50
2023-05-08T23:38:49.324Z,14.50
2023-05-08T23:41:16.056Z,14.50
2023-05-08T23:43:42.655Z,14.50
2023-05-08T23:46:09.822Z,14.50
2023-05-08T23:48:36.574Z,14.50
2023-05-08T23:51:03.319Z,14.50
2023-05-08T23:53:29.967Z,14.50
2023-05-08T23:55:56.666Z,14.40
2023-05-08T23:58:23.543Z,14.40
